Time;durP1;ratioP1;P1;durP2;ratioP2;P2;SDS_P1;SDS_P2;PMS_P1;PMS_P2;Temp;Humidity;BMP_temperature;BMP_pressure;BME280_temperature;BME280_humidity;BME280_pressure;Samples;Min_cycle;Max_cycle;Signal;HPM_P1;HPM_P2
2022/09/13 00:00:43;;;;;;;;;;;20.00;99.90;;;;;;5076794;28;20682;-61
2022/09/13 00:03:11;;;;;;;;;;;19.90;99.90;;;;;;5077656;28;20204;-61
2022/09/13 00:05:39;;;;;;;;;;;19.70;99.90;;;;;;5074718;28;20208;-61
2022/09/13 00:08:07;;;;;;;;;;;19.50;99.90;;;;;;5075518;28;20197;-62
2022/09/13 00:10:36;;;;;;;;;;;19.60;99.90;;;;;;5076154;28;20202;-62
2022/09/13 00:13:05;;;;;;;;;;;19.70;99.90;;;;;;5075478;28;20069;-62
2022/09/13 00:15:33;;;;;;;;;;;19.60;99.90;;;;;;5073232;28;20072;-62
2022/09/13 00:18:00;;;;;;;;;;;19.40;99.90;;;;;;5063184;28;20697;-62
2022/09/13 00:20:28;;;;;;;;;;;19.30;99.90;;;;;;5071833;28;20213;-61
2022/09/13 00:22:56;;;;;;;;;;;19.30;99.90;;;;;;5074672;28;20198;-62
2022/09/13 00:25:23;;;;;;;;;;;19.50;99.90;;;;;;5074838;28;20209;-61
2022/09/13 00:27:51;;;;;;;;;;;19.60;99.90;;;;;;5074718;28;20202;-61
2022/09/13 00:30:20;;;;;;;;;;;19.80;99.90;;;;;;5067599;28;20198;-61
2022/09/13 00:32:48;;;;;;;;;;;19.70;99.90;;;;;;5057908;28;20204;-61
2022/09/13 00:35:15;;;;;;;;;;;19.70;99.90;;;;;;5063820;28;20202;-61
2022/09/13 00:37:43;;;;;;;;;;;19.80;99.90;;;;;;5076983;28;20221;-59
2022/09/13 00:40:11;;;;;;;;;;;19.70;99.90;;;;;;5074424;28;20666;-60
2022/09/13 00:42:39;;;;;;;;;;;19.80;99.90;;;;;;5073151;28;20217;-61
2022/09/13 00:45:15;;;;;;;;;;;19.70;99.90;;;;;;5057818;28;20193;-61
2022/09/13 00:47:46;;;;;;;;;;;19.70;99.90;;;;;;5072617;28;20710;-61
2022/09/13 00:50:16;;;;;;;;;;;19.60;99.90;;;;;;5066825;28;20095;-61
2022/09/13 00:52:46;;;;;;;;;;;19.60;99.90;;;;;;5066730;28;20084;-61
2022/09/13 00:55:16;;;;;;;;;;;19.60;99.90;;;;;;5066929;28;20202;-61
2022/09/13 00:57:43;;;;;;;;;;;19.50;99.90;;;;;;5062667;28;20584;-61
2022/09/13 01:00:13;;;;;;;;;;;19.40;99.90;;;;;;5072830;28;20209;-61
2022/09/13 01:02:41;;;;;;;;;;;19.40;99.90;;;;;;5072793;28;20284;-61
2022/09/13 01:05:11;;;;;;;;;;;19.60;99.90;;;;;;5065584;28;20230;-61
2022/09/13 01:07:40;;;;;;;;;;;19.60;99.90;;;;;;5059208;28;20196;-61
2022/09/13 01:10:08;;;;;;;;;;;19.40;99.90;;;;;;5064847;28;20204;-61
2022/09/13 01:12:42;;;;;;;;;;;19.40;99.90;;;;;;5073980;28;20205;-61
2022/09/13 01:15:10;;;;;;;;;;;19.50;99.90;;;;;;5075933;28;20212;-61
2022/09/13 01:17:38;;;;;;;;;;;19.50;99.90;;;;;;5073654;28;20211;-61
2022/09/13 01:20:07;;;;;;;;;;;19.50;99.90;;;;;;5073221;28;20226;-61
2022/09/13 01:22:51;;;;;;;;;;;19.50;99.90;;;;;;5073442;28;20212;-61
2022/09/13 01:25:33;;;;;;;;;;;19.60;99.90;;;;;;5072768;28;20213;-61
2022/09/13 01:28:12;;;;;;;;;;;19.40;99.90;;;;;;5073212;28;20203;-61
2022/09/13 01:30:43;;;;;;;;;;;19.20;99.90;;;;;;5060604;28;20221;-61
2022/09/13 01:33:17;;;;;;;;;;;19.10;99.90;;;;;;5073024;28;20626;-60
2022/09/13 01:35:51;;;;;;;;;;;19.30;99.90;;;;;;5075582;28;20071;-61
2022/09/13 01:38:27;;;;;;;;;;;19.30;99.90;;;;;;5071120;28;20194;-61
2022/09/13 01:41:01;;;;;;;;;;;19.40;99.90;;;;;;5059519;28;20569;-60
2022/09/13 01:43:39;;;;;;;;;;;19.50;99.90;;;;;;5075278;28;20209;-62
2022/09/13 01:46:09;;;;;;;;;;;19.40;99.90;;;;;;5063414;28;20620;-60
2022/09/13 01:48:49;;;;;;;;;;;19.40;99.90;;;;;;5072902;28;20209;-61
2022/09/13 01:51:19;;;;;;;;;;;19.50;99.90;;;;;;5072223;28;20201;-61
2022/09/13 01:53:50;;;;;;;;;;;19.60;99.90;;;;;;5071041;28;20263;-61
2022/09/13 01:56:22;;;;;;;;;;;19.50;99.90;;;;;;5071390;28;20186;-62
2022/09/13 01:58:53;;;;;;;;;;;19.10;99.90;;;;;;5071770;28;20202;-61
2022/09/13 02:01:24;;;;;;;;;;;19.00;99.90;;;;;;5069618;28;20202;-61
2022/09/13 02:03:54;;;;;;;;;;;19.10;99.90;;;;;;5071628;28;20209;-61
2022/09/13 02:06:23;;;;;;;;;;;19.10;99.90;;;;;;5071364;28;20298;-61
2022/09/13 02:08:53;;;;;;;;;;;19.40;99.90;;;;;;5066517;28;20675;-60
2022/09/13 02:11:21;;;;;;;;;;;19.30;99.90;;;;;;5070982;28;20460;-61
2022/09/13 02:13:51;;;;;;;;;;;19.10;99.90;;;;;;5068501;28;20525;-59
2022/09/13 02:16:21;;;;;;;;;;;19.20;99.90;;;;;;5070187;28;21185;-60
2022/09/13 02:18:52;;;;;;;;;;;19.00;99.90;;;;;;5071110;28;20198;-61
2022/09/13 02:21:22;;;;;;;;;;;19.10;99.90;;;;;;5073186;28;20202;-61
2022/09/13 02:23:52;;;;;;;;;;;19.20;99.90;;;;;;5075552;28;20196;-61
2022/09/13 02:26:22;;;;;;;;;;;19.10;99.90;;;;;;5074417;28;20264;-60
2022/09/13 02:28:51;;;;;;;;;;;19.20;99.90;;;;;;5075734;28;20197;-61
2022/09/13 02:31:22;;;;;;;;;;;19.20;99.90;;;;;;5072352;28;20204;-61
2022/09/13 02:33:54;;;;;;;;;;;19.10;99.90;;;;;;5077917;28;20202;-61
2022/09/13 02:36:23;;;;;;;;;;;19.10;99.90;;;;;;5077949;28;20197;-61
2022/09/13 02:38:54;;;;;;;;;;;19.10;99.90;;;;;;5078944;28;20275;-60
2022/09/13 02:41:26;;;;;;;;;;;19.10;99.90;;;;;;5078313;28;20227;-61
2022/09/13 02:43:57;;;;;;;;;;;19.10;99.90;;;;;;5076904;28;20081;-60
2022/09/13 02:46:34;;;;;;;;;;;19.10;99.90;;;;;;5074233;28;20221;-61
2022/09/13 02:49:07;;;;;;;;;;;19.00;99.90;;;;;;5072909;28;20233;-60
2022/09/13 02:51:40;;;;;;;;;;;18.90;99.90;;;;;;5064853;28;20209;-61
2022/09/13 02:54:12;;;;;;;;;;;19.10;99.90;;;;;;5067947;28;20199;-61
2022/09/13 02:56:43;;;;;;;;;;;19.20;99.90;;;;;;5079035;28;20296;-60
2022/09/13 02:59:14;;;;;;;;;;;19.20;99.90;;;;;;5075947;28;20569;-61
2022/09/13 03:01:44;;;;;;;;;;;19.10;99.90;;;;;;5072767;28;20183;-61
2022/09/13 03:04:13;;;;;;;;;;;19.10;99.90;;;;;;5077854;28;20193;-61
2022/09/13 03:06:41;;;;;;;;;;;19.20;99.90;;;;;;5077237;28;20656;-61
2022/09/13 03:09:09;;;;;;;;;;;19.10;99.90;;;;;;5080036;28;20067;-60
2022/09/13 03:11:42;;;;;;;;;;;19.00;99.90;;;;;;5075907;28;20205;-60
2022/09/13 03:14:19;;;;;;;;;;;19.10;99.90;;;;;;5076912;28;21650;-61
2022/09/13 03:16:54;;;;;;;;;;;19.00;99.90;;;;;;5072600;28;20202;-61
2022/09/13 03:19:28;;;;;;;;;;;19.00;99.90;;;;;;5069425;28;20201;-61
2022/09/13 03:22:02;;;;;;;;;;;19.20;99.90;;;;;;5075016;28;20984;-61
2022/09/13 03:24:35;;;;;;;;;;;19.10;99.90;;;;;;5074821;28;21294;-61
2022/09/13 03:27:09;;;;;;;;;;;19.00;99.90;;;;;;5075764;28;20216;-61
2022/09/13 03:29:40;;;;;;;;;;;19.10;99.90;;;;;;5077957;28;20230;-61
2022/09/13 03:32:18;;;;;;;;;;;19.20;99.90;;;;;;5078664;28;20224;-60
2022/09/13 03:34:51;;;;;;;;;;;19.10;99.90;;;;;;5075259;28;25073;-61
2022/09/13 03:37:22;;;;;;;;;;;19.00;99.90;;;;;;5076316;28;20070;-61
2022/09/13 03:39:53;;;;;;;;;;;19.20;99.90;;;;;;5075635;28;20224;-61
2022/09/13 03:42:23;;;;;;;;;;;19.10;99.90;;;;;;5074681;28;20115;-60
2022/09/13 03:44:52;;;;;;;;;;;19.00;99.90;;;;;;5102287;23;20213;-62
2022/09/13 03:47:21;;;;;;;;;;;19.10;99.90;;;;;;5086351;28;20682;-65
2022/09/13 03:49:51;;;;;;;;;;;19.10;99.90;;;;;;5083982;28;20095;-64
2022/09/13 03:52:19;;;;;;;;;;;18.90;99.90;;;;;;5082725;28;25084;-64
2022/09/13 03:54:47;;;;;;;;;;;19.00;99.90;;;;;;5076104;28;20556;-64
2022/09/13 03:57:16;;;;;;;;;;;19.10;99.90;;;;;;5067182;28;20220;-63
2022/09/13 03:59:45;;;;;;;;;;;19.00;99.90;;;;;;5067466;28;20101;-64
2022/09/13 04:02:13;;;;;;;;;;;19.10;99.90;;;;;;5066694;28;25065;-63
2022/09/13 04:04:42;;;;;;;;;;;19.20;99.90;;;;;;5067772;28;20072;-64
2022/09/13 04:07:12;;;;;;;;;;;19.20;99.90;;;;;;5066890;28;20231;-64
2022/09/13 04:09:39;;;;;;;;;;;19.20;99.90;;;;;;5066552;28;20126;-64
2022/09/13 04:12:08;;;;;;;;;;;19.30;99.90;;;;;;5066821;28;20706;-63
2022/09/13 04:14:36;;;;;;;;;;;19.10;99.90;;;;;;5059091;28;20220;-64
2022/09/13 04:17:04;;;;;;;;;;;19.10;99.90;;;;;;5053573;28;20103;-65
2022/09/13 04:19:32;;;;;;;;;;;19.10;99.90;;;;;;5055112;28;20071;-65
2022/09/13 04:21:59;;;;;;;;;;;19.10;99.90;;;;;;5056216;28;20211;-66
2022/09/13 04:24:29;;;;;;;;;;;19.00;99.90;;;;;;5055226;28;20170;-63
2022/09/13 04:26:57;;;;;;;;;;;19.10;99.90;;;;;;5054614;28;20624;-64
2022/09/13 04:29:26;;;;;;;;;;;19.20;99.90;;;;;;5059500;28;20173;-64
2022/09/13 04:31:54;;;;;;;;;;;19.00;99.90;;;;;;5058310;28;20248;-64
2022/09/13 04:34:22;;;;;;;;;;;19.10;99.90;;;;;;5054527;28;20291;-64
2022/09/13 04:36:51;;;;;;;;;;;19.00;99.90;;;;;;5052393;28;20242;-65
2022/09/13 04:39:19;;;;;;;;;;;19.00;99.90;;;;;;5053395;28;20215;-64
2022/09/13 04:41:48;;;;;;;;;;;19.10;99.90;;;;;;5053632;28;20206;-64
2022/09/13 04:44:16;;;;;;;;;;;19.10;99.90;;;;;;5052938;28;20220;-64
2022/09/13 04:46:46;;;;;;;;;;;19.20;99.90;;;;;;5053605;28;20235;-65
2022/09/13 04:49:14;;;;;;;;;;;19.10;99.90;;;;;;5053626;28;20196;-64
2022/09/13 04:51:42;;;;;;;;;;;19.10;99.90;;;;;;5053558;28;20720;-64
2022/09/13 04:54:10;;;;;;;;;;;18.90;99.90;;;;;;5059715;28;25082;-63
2022/09/13 04:56:42;;;;;;;;;;;19.20;99.90;;;;;;5052749;28;20075;-64
2022/09/13 04:59:11;;;;;;;;;;;19.10;99.90;;;;;;5053335;28;20739;-64
2022/09/13 05:01:40;;;;;;;;;;;19.00;99.90;;;;;;5054558;28;20210;-64
2022/09/13 05:04:08;;;;;;;;;;;19.10;99.90;;;;;;5055045;28;20208;-64
2022/09/13 05:06:37;;;;;;;;;;;19.20;99.90;;;;;;5053116;28;20083;-64
2022/09/13 05:09:05;;;;;;;;;;;19.30;99.90;;;;;;5053965;28;20135;-64
2022/09/13 05:11:33;;;;;;;;;;;19.30;99.90;;;;;;5053804;28;20303;-63
2022/09/13 05:14:01;;;;;;;;;;;19.20;99.90;;;;;;5054069;28;20230;-63
2022/09/13 05:16:31;;;;;;;;;;;19.50;99.90;;;;;;5055527;28;21955;-64
2022/09/13 05:18:59;;;;;;;;;;;19.40;99.90;;;;;;5058395;28;20689;-64
2022/09/13 05:21:27;;;;;;;;;;;19.40;99.90;;;;;;5055378;28;21157;-64
2022/09/13 05:23:56;;;;;;;;;;;19.30;99.90;;;;;;5054660;28;20340;-65
2022/09/13 05:26:24;;;;;;;;;;;19.30;99.90;;;;;;5052271;28;20219;-64
2022/09/13 05:28:52;;;;;;;;;;;19.00;99.90;;;;;;5053051;28;20198;-64
2022/09/13 05:31:20;;;;;;;;;;;19.10;99.90;;;;;;5053872;28;20202;-64
2022/09/13 05:33:53;;;;;;;;;;;19.10;99.90;;;;;;5054059;28;25081;-63
2022/09/13 05:36:21;;;;;;;;;;;19.20;99.90;;;;;;5052318;28;20597;-64
2022/09/13 05:38:49;;;;;;;;;;;19.30;99.90;;;;;;5052457;28;20251;-64
2022/09/13 05:41:36;;;;;;;;;;;19.30;99.90;;;;;;5053359;28;20106;-65
2022/09/13 05:44:04;;;;;;;;;;;19.30;99.90;;;;;;5053284;28;20214;-66
2022/09/13 05:46:40;;;;;;;;;;;19.20;99.90;;;;;;5053036;28;20209;-64
2022/09/13 05:49:09;;;;;;;;;;;19.20;99.90;;;;;;5053693;28;20208;-65
2022/09/13 05:51:36;;;;;;;;;;;19.30;99.90;;;;;;5054185;28;20208;-64
2022/09/13 05:54:04;;;;;;;;;;;19.50;99.90;;;;;;5054461;28;20209;-65
2022/09/13 05:56:32;;;;;;;;;;;19.40;99.90;;;;;;5052159;28;20229;-64
2022/09/13 05:59:00;;;;;;;;;;;19.50;99.90;;;;;;5052745;28;20233;-65
2022/09/13 06:01:28;;;;;;;;;;;19.40;99.90;;;;;;5055583;28;20231;-64
2022/09/13 06:03:57;;;;;;;;;;;19.40;99.90;;;;;;5056061;28;20131;-65
2022/09/13 06:06:26;;;;;;;;;;;19.40;99.90;;;;;;5056206;28;20399;-64
2022/09/13 06:08:55;;;;;;;;;;;19.40;99.90;;;;;;5056736;28;20788;-64
2022/09/13 06:11:24;;;;;;;;;;;19.50;99.90;;;;;;5056637;28;20681;-64
2022/09/13 06:13:52;;;;;;;;;;;19.60;99.90;;;;;;5057395;28;20241;-64
2022/09/13 06:16:20;;;;;;;;;;;19.60;99.90;;;;;;5054826;28;20095;-64
2022/09/13 06:18:48;;;;;;;;;;;19.60;99.90;;;;;;5055837;28;20192;-66
2022/09/13 06:21:17;;;;;;;;;;;19.60;99.90;;;;;;5056391;28;20387;-64
2022/09/13 06:23:46;;;;;;;;;;;19.70;99.90;;;;;;5056666;28;20662;-64
2022/09/13 06:26:15;;;;;;;;;;;19.70;99.90;;;;;;5056176;28;20043;-65
2022/09/13 06:28:43;;;;;;;;;;;19.80;99.90;;;;;;5055520;28;20661;-64
2022/09/13 06:31:12;;;;;;;;;;;19.80;99.90;;;;;;5057168;28;20792;-64
2022/09/13 06:33:41;;;;;;;;;;;19.70;99.90;;;;;;5057168;28;20571;-64
2022/09/13 06:36:09;;;;;;;;;;;19.70;99.90;;;;;;5056016;28;20028;-64
2022/09/13 06:38:38;;;;;;;;;;;19.80;99.90;;;;;;5056467;28;21397;-65
2022/09/13 06:41:08;;;;;;;;;;;19.80;99.90;;;;;;5056599;28;20861;-65
2022/09/13 06:43:37;;;;;;;;;;;19.80;99.90;;;;;;5056904;28;20202;-64
2022/09/13 06:46:06;;;;;;;;;;;19.80;99.90;;;;;;5056751;28;20203;-64
2022/09/13 06:48:34;;;;;;;;;;;19.90;99.90;;;;;;5056809;28;20630;-65
2022/09/13 06:51:03;;;;;;;;;;;19.90;99.90;;;;;;5056510;28;20111;-64
2022/09/13 06:53:32;;;;;;;;;;;19.90;99.90;;;;;;5057022;28;20336;-64
2022/09/13 06:56:01;;;;;;;;;;;19.90;99.90;;;;;;5059011;28;20657;-64
2022/09/13 06:58:31;;;;;;;;;;;20.00;99.90;;;;;;5055954;28;20247;-64
2022/09/13 07:01:08;;;;;;;;;;;20.20;99.90;;;;;;5055487;28;20187;-62
2022/09/13 07:03:36;;;;;;;;;;;20.30;99.90;;;;;;5056368;28;21463;-62
2022/09/13 07:06:09;;;;;;;;;;;20.30;99.90;;;;;;5055779;28;20196;-62
2022/09/13 07:08:37;;;;;;;;;;;20.30;99.90;;;;;;5056543;28;21285;-62
2022/09/13 07:11:05;;;;;;;;;;;20.20;99.90;;;;;;5055780;28;20679;-62
2022/09/13 07:13:35;;;;;;;;;;;20.10;99.90;;;;;;5056761;28;19979;-63
2022/09/13 07:16:03;;;;;;;;;;;20.10;99.90;;;;;;5055588;28;20094;-62
2022/09/13 07:18:31;;;;;;;;;;;20.10;99.90;;;;;;5052917;28;20576;-61
2022/09/13 07:21:00;;;;;;;;;;;20.10;99.90;;;;;;5056433;28;20093;-64
2022/09/13 07:23:28;;;;;;;;;;;19.90;99.90;;;;;;5056190;28;20470;-62
2022/09/13 07:26:00;;;;;;;;;;;19.80;99.90;;;;;;5055500;28;19989;-62
2022/09/13 07:28:30;;;;;;;;;;;19.70;99.90;;;;;;5055841;28;20854;-63
2022/09/13 07:31:07;;;;;;;;;;;19.70;99.90;;;;;;5054684;28;20699;-63
2022/09/13 07:33:35;;;;;;;;;;;19.70;99.90;;;;;;5055512;28;20057;-62
2022/09/13 07:36:05;;;;;;;;;;;19.60;99.90;;;;;;5055460;28;20001;-63
2022/09/13 07:38:33;;;;;;;;;;;19.50;99.90;;;;;;5056127;28;20768;-62
2022/09/13 07:41:01;;;;;;;;;;;19.20;99.90;;;;;;5054526;28;26141;-62
2022/09/13 07:43:29;;;;;;;;;;;19.00;99.90;;;;;;5055429;28;20179;-63
2022/09/13 07:45:58;;;;;;;;;;;18.80;99.90;;;;;;5055129;28;20160;-62
2022/09/13 07:48:28;;;;;;;;;;;18.80;99.90;;;;;;5054332;28;20040;-62
2022/09/13 07:51:01;;;;;;;;;;;18.80;99.90;;;;;;5054723;28;20421;-63
2022/09/13 07:53:28;;;;;;;;;;;18.70;99.90;;;;;;5055851;28;21284;-63
2022/09/13 07:56:00;;;;;;;;;;;18.80;99.90;;;;;;5055422;28;20380;-62
2022/09/13 07:58:27;;;;;;;;;;;18.70;99.90;;;;;;5054054;28;20019;-62
2022/09/13 08:00:57;;;;;;;;;;;18.70;99.90;;;;;;5054403;28;20524;-65
2022/09/13 08:03:25;;;;;;;;;;;18.80;99.90;;;;;;5054470;28;20514;-64
2022/09/13 08:05:54;;;;;;;;;;;18.80;99.90;;;;;;5054451;28;20112;-65
2022/09/13 08:08:22;;;;;;;;;;;18.80;99.90;;;;;;5053026;28;20429;-63
2022/09/13 08:10:50;;;;;;;;;;;18.90;99.90;;;;;;5054040;28;20900;-62
2022/09/13 08:13:17;;;;;;;;;;;19.00;99.90;;;;;;5054686;28;20206;-64
2022/09/13 08:15:46;;;;;;;;;;;19.10;99.90;;;;;;5054583;28;20915;-65
2022/09/13 08:18:13;;;;;;;;;;;19.20;99.90;;;;;;5053435;28;20333;-65
2022/09/13 08:20:41;;;;;;;;;;;19.30;99.90;;;;;;5053679;28;20829;-67
2022/09/13 08:23:11;;;;;;;;;;;19.30;99.90;;;;;;5054784;28;21154;-66
2022/09/13 08:25:39;;;;;;;;;;;19.40;99.90;;;;;;5053922;28;20597;-66
2022/09/13 08:28:07;;;;;;;;;;;19.40;99.90;;;;;;5051899;28;20700;-65
2022/09/13 08:30:36;;;;;;;;;;;19.40;99.90;;;;;;5053844;28;25152;-63
2022/09/13 08:33:04;;;;;;;;;;;19.50;99.90;;;;;;5054609;28;20184;-64
2022/09/13 08:35:32;;;;;;;;;;;19.60;99.90;;;;;;5058849;28;21729;-65
2022/09/13 08:38:00;;;;;;;;;;;19.60;99.90;;;;;;5053431;28;20677;-65
2022/09/13 08:40:33;;;;;;;;;;;19.70;99.90;;;;;;5053750;28;20806;-62
2022/09/13 08:43:06;;;;;;;;;;;19.60;99.90;;;;;;5054506;28;21414;-63
2022/09/13 08:45:34;;;;;;;;;;;19.60;99.90;;;;;;5054552;28;20663;-64
2022/09/13 08:48:04;;;;;;;;;;;19.60;99.90;;;;;;5052439;28;20664;-64
2022/09/13 08:50:33;;;;;;;;;;;19.40;99.90;;;;;;5053444;28;20473;-65
2022/09/13 08:53:06;;;;;;;;;;;19.30;99.90;;;;;;5053718;28;20785;-63
2022/09/13 08:55:40;;;;;;;;;;;19.20;99.90;;;;;;5054328;28;20671;-63
2022/09/13 08:58:18;;;;;;;;;;;19.20;99.90;;;;;;5056070;28;21398;-63
2022/09/13 09:00:49;;;;;;;;;;;18.90;99.90;;;;;;5056681;28;20230;-63
2022/09/13 09:03:21;;;;;;;;;;;18.80;99.90;;;;;;5053678;28;20028;-63
2022/09/13 09:05:49;;;;;;;;;;;18.80;99.90;;;;;;5055516;28;20694;-62
2022/09/13 09:08:23;;;;;;;;;;;18.60;99.90;;;;;;5057036;28;20536;-65
2022/09/13 09:10:54;;;;;;;;;;;18.60;99.90;;;;;;5059022;28;20062;-63
2022/09/13 09:13:26;;;;;;;;;;;18.40;99.90;;;;;;5056747;28;21691;-63
2022/09/13 09:15:56;;;;;;;;;;;18.30;99.90;;;;;;5056375;28;20875;-62
2022/09/13 09:18:25;;;;;;;;;;;18.30;99.90;;;;;;5055780;28;20520;-64
2022/09/13 09:20:55;;;;;;;;;;;18.20;99.90;;;;;;5054083;28;20506;-67
2022/09/13 09:23:24;;;;;;;;;;;18.20;99.90;;;;;;5050684;28;20654;-63
2022/09/13 09:25:56;;;;;;;;;;;18.20;99.90;;;;;;5052996;28;20884;-63
2022/09/13 09:28:25;;;;;;;;;;;18.20;99.90;;;;;;5041173;28;20698;-64
2022/09/13 09:30:59;;;;;;;;;;;18.30;99.90;;;;;;5054765;28;19982;-64
2022/09/13 09:33:41;;;;;;;;;;;18.40;99.90;;;;;;5051071;28;20660;-64
2022/09/13 09:36:13;;;;;;;;;;;18.50;99.90;;;;;;5049338;28;20702;-67
2022/09/13 09:38:41;;;;;;;;;;;18.60;99.90;;;;;;5055856;28;20090;-63
2022/09/13 09:41:14;;;;;;;;;;;18.50;99.90;;;;;;5061165;28;20721;-64
2022/09/13 09:43:44;;;;;;;;;;;18.40;99.90;;;;;;5068196;28;20062;-64
2022/09/13 09:46:14;;;;;;;;;;;18.30;99.90;;;;;;5065785;22;20745;-64
2022/09/13 09:48:44;;;;;;;;;;;18.10;99.90;;;;;;5028263;28;20685;-64
2022/09/13 09:51:12;;;;;;;;;;;18.00;99.90;;;;;;5032055;28;20704;-64
2022/09/13 09:53:43;;;;;;;;;;;18.00;99.90;;;;;;5032862;28;25128;-64
2022/09/13 09:56:25;;;;;;;;;;;18.00;99.90;;;;;;5035293;28;20541;-64
2022/09/13 09:58:54;;;;;;;;;;;18.10;99.90;;;;;;5033081;28;21216;-64
2022/09/13 10:01:24;;;;;;;;;;;18.10;99.90;;;;;;5033935;28;21351;-64
2022/09/13 10:03:55;;;;;;;;;;;18.00;99.90;;;;;;5035148;28;21073;-64
2022/09/13 10:06:24;;;;;;;;;;;17.90;99.90;;;;;;5033170;28;20530;-64
2022/09/13 10:08:58;;;;;;;;;;;18.00;99.90;;;;;;5035194;28;20037;-64
2022/09/13 10:11:38;;;;;;;;;;;18.10;99.90;;;;;;5034057;28;20644;-64
2022/09/13 10:14:26;;;;;;;;;;;18.20;99.90;;;;;;5030900;28;20118;-64
2022/09/13 10:17:02;;;;;;;;;;;18.20;99.90;;;;;;5030804;28;20789;-64
2022/09/13 10:19:31;;;;;;;;;;;18.30;99.90;;;;;;5034943;28;20667;-63
2022/09/13 10:22:03;;;;;;;;;;;18.30;99.90;;;;;;5033849;28;20824;-64
2022/09/13 10:24:31;;;;;;;;;;;18.40;99.90;;;;;;5030796;28;21175;-63
2022/09/13 10:26:59;;;;;;;;;;;18.50;99.90;;;;;;5026670;28;20210;-65
2022/09/13 10:29:28;;;;;;;;;;;18.70;99.90;;;;;;5034730;28;20389;-64
2022/09/13 10:31:57;;;;;;;;;;;18.80;99.90;;;;;;5034077;28;20678;-65
2022/09/13 10:34:26;;;;;;;;;;;18.80;99.90;;;;;;5026353;28;20814;-65
2022/09/13 10:36:56;;;;;;;;;;;18.80;99.90;;;;;;5022760;28;20295;-64
2022/09/13 10:39:24;;;;;;;;;;;18.90;99.90;;;;;;5027759;28;20106;-64
2022/09/13 10:41:54;;;;;;;;;;;18.90;99.90;;;;;;5024417;28;20332;-64
2022/09/13 10:44:25;;;;;;;;;;;18.90;99.90;;;;;;5028368;28;20128;-64
2022/09/13 10:46:54;;;;;;;;;;;19.10;99.90;;;;;;5026978;28;20507;-64
2022/09/13 10:49:35;;;;;;;;;;;19.10;99.90;;;;;;5029272;28;20314;-63
2022/09/13 10:52:23;;;;;;;;;;;19.10;99.90;;;;;;5023193;28;25206;-64
2022/09/13 10:54:50;;;;;;;;;;;19.10;99.90;;;;;;5026747;28;20692;-64
2022/09/13 10:57:31;;;;;;;;;;;19.20;99.90;;;;;;5028199;28;20547;-64
2022/09/13 10:59:59;;;;;;;;;;;19.20;99.90;;;;;;5027889;28;20814;-63
2022/09/13 11:02:44;;;;;;;;;;;19.40;99.90;;;;;;5030451;28;20672;-64
2022/09/13 11:05:15;;;;;;;;;;;19.50;99.90;;;;;;5026057;28;20480;-63
2022/09/13 11:07:47;;;;;;;;;;;19.60;99.90;;;;;;5026910;28;20633;-64
2022/09/13 11:10:20;;;;;;;;;;;19.60;99.90;;;;;;5027242;28;20183;-64
2022/09/13 11:12:53;;;;;;;;;;;19.50;99.90;;;;;;5027152;28;20366;-63
2022/09/13 11:15:27;;;;;;;;;;;19.60;99.90;;;;;;5026658;28;20221;-63
2022/09/13 11:18:08;;;;;;;;;;;19.60;99.90;;;;;;5024272;28;20260;-62
2022/09/13 11:20:40;;;;;;;;;;;19.60;99.90;;;;;;5024180;28;20286;-63
2022/09/13 11:23:22;;;;;;;;;;;19.60;99.90;;;;;;5025981;28;20303;-64
2022/09/13 11:25:54;;;;;;;;;;;19.60;99.90;;;;;;5023586;28;20663;-64
2022/09/13 11:28:25;;;;;;;;;;;19.50;99.90;;;;;;5024030;28;20137;-63
2022/09/13 11:31:01;;;;;;;;;;;19.40;99.90;;;;;;5024779;28;20754;-64
2022/09/13 11:33:35;;;;;;;;;;;19.40;99.90;;;;;;5020966;28;21045;-64
2022/09/13 11:36:13;;;;;;;;;;;19.30;99.90;;;;;;5027014;28;21005;-64
2022/09/13 11:38:45;;;;;;;;;;;19.20;99.90;;;;;;5022860;28;20810;-64
2022/09/13 11:41:18;;;;;;;;;;;19.20;99.90;;;;;;5031007;28;20388;-64
2022/09/13 11:43:52;;;;;;;;;;;19.30;99.90;;;;;;5024103;28;20323;-63
2022/09/13 11:46:25;;;;;;;;;;;19.40;99.90;;;;;;5028494;28;20432;-64
2022/09/13 11:49:11;;;;;;;;;;;19.50;99.90;;;;;;5027331;28;20255;-63
2022/09/13 11:51:47;;;;;;;;;;;19.70;99.90;;;;;;5019359;28;20240;-63
2022/09/13 11:54:25;;;;;;;;;;;19.80;99.90;;;;;;5026448;28;20226;-63
2022/09/13 11:56:55;;;;;;;;;;;19.80;99.90;;;;;;5025966;28;20206;-63
2022/09/13 11:59:27;;;;;;;;;;;20.00;99.90;;;;;;5018085;28;20683;-61
2022/09/13 12:01:57;;;;;;;;;;;20.10;99.90;;;;;;5015241;28;20198;-63
2022/09/13 12:04:28;;;;;;;;;;;20.10;99.90;;;;;;5016874;28;20212;-61
2022/09/13 12:07:02;;;;;;;;;;;20.20;99.90;;;;;;5014624;28;20107;-62
2022/09/13 12:09:32;;;;;;;;;;;20.30;99.90;;;;;;5014594;28;20250;-62
2022/09/13 12:12:04;;;;;;;;;;;20.40;99.90;;;;;;5012563;28;20204;-62
2022/09/13 12:14:38;;;;;;;;;;;20.60;99.90;;;;;;5012309;28;20933;-62
2022/09/13 12:17:12;;;;;;;;;;;20.70;99.90;;;;;;5013924;28;25144;-62
2022/09/13 12:19:43;;;;;;;;;;;20.90;99.90;;;;;;5017848;28;20119;-62
2022/09/13 12:22:11;;;;;;;;;;;21.10;99.90;;;;;;5015127;28;20776;-62
2022/09/13 12:24:41;;;;;;;;;;;21.20;99.90;;;;;;5012354;28;20251;-62
2022/09/13 12:27:11;;;;;;;;;;;21.30;99.90;;;;;;5013485;28;20244;-62
2022/09/13 12:29:43;;;;;;;;;;;21.30;99.90;;;;;;5014511;28;20309;-62
2022/09/13 12:32:12;;;;;;;;;;;21.40;99.90;;;;;;5013708;28;20286;-62
2022/09/13 12:34:43;;;;;;;;;;;21.50;99.90;;;;;;5012280;28;20223;-62
2022/09/13 12:37:16;;;;;;;;;;;21.60;99.90;;;;;;5014200;28;20213;-62
2022/09/13 12:40:03;;;;;;;;;;;21.50;99.90;;;;;;5014055;28;21891;-62
2022/09/13 12:42:45;;;;;;;;;;;21.40;99.90;;;;;;5014566;28;20304;-62
2022/09/13 12:45:21;;;;;;;;;;;21.20;99.90;;;;;;5012475;28;20291;-62
2022/09/13 12:48:07;;;;;;;;;;;21.20;99.90;;;;;;5015757;28;20226;-62
2022/09/13 12:50:44;;;;;;;;;;;21.00;99.90;;;;;;5014657;28;20247;-62
2022/09/13 12:53:26;;;;;;;;;;;21.00;99.90;;;;;;5010183;28;20230;-62
2022/09/13 12:56:02;;;;;;;;;;;21.00;99.90;;;;;;5001808;28;20227;-62
2022/09/13 12:58:46;;;;;;;;;;;21.00;99.90;;;;;;5014262;28;20237;-62
2022/09/13 13:01:15;;;;;;;;;;;20.90;99.90;;;;;;5011721;28;20469;-62
2022/09/13 13:03:46;;;;;;;;;;;20.90;99.90;;;;;;5012045;28;25139;-61
2022/09/13 13:06:21;;;;;;;;;;;20.90;99.90;;;;;;5012070;28;20297;-62
2022/09/13 13:08:50;;;;;;;;;;;21.00;99.90;;;;;;5014222;28;20264;-62
2022/09/13 13:11:20;;;;;;;;;;;21.10;99.90;;;;;;5011420;28;21667;-62
2022/09/13 13:13:53;;;;;;;;;;;21.10;99.90;;;;;;5007896;28;20801;-61
2022/09/13 13:16:23;;;;;;;;;;;21.20;99.90;;;;;;5016264;28;20748;-62
2022/09/13 13:18:51;;;;;;;;;;;21.30;99.90;;;;;;5012989;28;21705;-62
2022/09/13 13:21:38;;;;;;;;;;;21.40;99.90;;;;;;5014051;28;25076;-62
2022/09/13 13:24:24;;;;;;;;;;;21.40;99.90;;;;;;5012985;28;21370;-61
2022/09/13 13:26:53;;;;;;;;;;;21.30;99.90;;;;;;5011673;28;20843;-62
2022/09/13 13:29:22;;;;;;;;;;;21.30;99.90;;;;;;5016654;28;20225;-63
2022/09/13 13:32:09;;;;;;;;;;;21.30;99.90;;;;;;5012875;28;20227;-61
2022/09/13 13:34:38;;;;;;;;;;;21.40;99.90;;;;;;5013069;28;21191;-62
2022/09/13 13:37:22;;;;;;;;;;;21.50;99.90;;;;;;5012333;28;20707;-63
2022/09/13 13:40:09;;;;;;;;;;;21.60;99.90;;;;;;5011865;28;20209;-62
2022/09/13 13:42:38;;;;;;;;;;;21.60;99.90;;;;;;5015306;28;20284;-62
2022/09/13 13:45:20;;;;;;;;;;;21.60;99.90;;;;;;5011651;28;20229;-61
2022/09/13 13:48:04;;;;;;;;;;;21.70;99.90;;;;;;5009172;28;20350;-62
2022/09/13 13:50:31;;;;;;;;;;;21.70;99.90;;;;;;5012059;28;21528;-61
2022/09/13 13:53:21;;;;;;;;;;;21.70;99.90;;;;;;5009208;28;20880;-62
2022/09/13 13:56:06;;;;;;;;;;;21.80;99.90;;;;;;5012774;28;20215;-62
2022/09/13 13:58:42;;;;;;;;;;;21.80;99.90;;;;;;5013378;28;20666;-61
2022/09/13 14:01:14;;;;;;;;;;;21.70;99.90;;;;;;5010777;28;20220;-62
2022/09/13 14:03:50;;;;;;;;;;;21.70;99.90;;;;;;5012746;28;20191;-62
2022/09/13 14:06:22;;;;;;;;;;;21.70;99.90;;;;;;5013245;28;20397;-62
2022/09/13 14:08:58;;;;;;;;;;;21.70;99.90;;;;;;5012374;28;25080;-62
2022/09/13 14:11:38;;;;;;;;;;;21.70;99.90;;;;;;5010712;28;20161;-62
2022/09/13 14:14:16;;;;;;;;;;;21.80;99.90;;;;;;5010837;28;25075;-62
2022/09/13 14:16:51;;;;;;;;;;;21.80;99.90;;;;;;5011917;28;20338;-62
2022/09/13 14:19:23;;;;;;;;;;;21.90;99.90;;;;;;5013670;28;20761;-62
2022/09/13 14:22:13;;;;;;;;;;;21.80;99.90;;;;;;5012107;28;20277;-62
2022/09/13 14:24:42;;;;;;;;;;;21.80;99.90;;;;;;5011119;28;20287;-61
2022/09/13 14:27:15;;;;;;;;;;;21.80;99.90;;;;;;5016732;28;20778;-62
2022/09/13 14:29:47;;;;;;;;;;;21.80;99.90;;;;;;5018543;28;20785;-62
2022/09/13 14:32:17;;;;;;;;;;;21.80;99.90;;;;;;5018288;28;25128;-62
2022/09/13 14:34:53;;;;;;;;;;;21.70;99.90;;;;;;5015828;28;20779;-62
2022/09/13 14:37:23;;;;;;;;;;;21.60;99.90;;;;;;5013207;28;20241;-62
2022/09/13 14:39:55;;;;;;;;;;;21.60;99.90;;;;;;5016066;28;20812;-62